Terminal Aerodrome Forecast
Issued by NWS Twin Cities, MN

Home | Current Version | Previous Version | Text Only | Print | Product List | Glossary On
Versions: 1 2 3 4 5 6 7 8 9 10 11 12 13 14 15 16 17 18 19 20 21 22 23 24 25 26 27 28 29 30 31 32 33 34
000
FTUS43 KMPX 292300
TAFMSP
TAF
KMSP 292327Z 3000/3106 33005KT 6SM -SHRA SCT020 OVC045
     FM300500 32003KT P6SM SCT015 BKN090
     FM300700 33004KT P6SM SCT004 OVC012
     FM300900 35005KT 4SM BR OVC003
     FM301500 34006KT P6SM BKN010 OVC020
     FM301700 34006KT P6SM BKN025
     FM302100 34005KT P6SM SCT025=

USA.gov is the U.S. government's official web portal to all federal, state and local government web resources and services.